createdAt,value
2022-12-18T00:00:08.482Z,29.55
2022-12-18T00:02:36.606Z,28.20
2022-12-18T00:05:04.720Z,31.48
2022-12-18T00:07:32.614Z,31.60
2022-12-18T00:10:00.638Z,35.85
2022-12-18T00:12:29.997Z,35.15
2022-12-18T00:14:59.629Z,34.70
2022-12-18T00:17:27.597Z,31.33
2022-12-18T00:19:55.535Z,29.88
2022-12-18T00:22:23.475Z,25.75
2022-12-18T00:24:51.384Z,26.17
2022-12-18T00:27:19.298Z,25.88
2022-12-18T00:29:47.182Z,25.77
2022-12-18T00:32:16.612Z,26.35
2022-12-18T00:34:44.750Z,25.10
2022-12-18T00:37:16.817Z,22.27
2022-12-18T00:42:32.719Z,21.50
2022-12-18T00:45:00.666Z,22.33
2022-12-18T00:47:29.895Z,21.15
2022-12-18T00:49:57.877Z,22.08
2022-12-18T00:52:25.773Z,23.38
2022-12-18T00:54:53.702Z,24.52
2022-12-18T00:57:21.689Z,22.63
2022-12-18T00:59:50.456Z,23.90
2022-12-18T01:02:18.734Z,22.65
2022-12-18T01:04:48.352Z,24.15
2022-12-18T01:07:16.550Z,23.70
2022-12-18T01:09:44.611Z,21.55
2022-12-18T01:12:12.555Z,21.17
2022-12-18T01:14:40.406Z,22.20
2022-12-18T01:17:08.332Z,22.27
2022-12-18T01:19:36.650Z,23.52
2022-12-18T01:22:08.664Z,20.98
2022-12-18T01:24:36.733Z,20.63
2022-12-18T01:27:04.853Z,25.33
2022-12-18T01:29:33.023Z,24.90
2022-12-18T01:32:01.173Z,24.58
2022-12-18T01:34:29.154Z,23.73
2022-12-18T01:36:57.052Z,24.17
2022-12-18T01:39:26.400Z,23.98
2022-12-18T01:42:06.401Z,24.58
2022-12-18T01:45:09.070Z,26.25
2022-12-18T01:47:43.658Z,25.05
2022-12-18T01:50:17.169Z,25.67
2022-12-18T01:52:48.701Z,24.40
2022-12-18T01:55:21.226Z,25.33
2022-12-18T01:57:50.063Z,26.42
2022-12-18T02:00:20.873Z,25.85
2022-12-18T02:02:50.039Z,24.27
2022-12-18T02:05:21.092Z,24.73
2022-12-18T02:08:00.629Z,22.33
2022-12-18T02:10:35.015Z,25.10
2022-12-18T02:13:11.600Z,24.58
2022-12-18T02:15:47.388Z,24.63
2022-12-18T02:18:21.985Z,21.98
2022-12-18T02:20:54.956Z,24.33
2022-12-18T02:23:40.706Z,22.05
2022-12-18T02:26:20.799Z,22.00
2022-12-18T02:28:54.111Z,22.10
2022-12-18T02:31:28.035Z,20.77
2022-12-18T02:33:58.720Z,22.00
2022-12-18T02:36:29.620Z,22.95
2022-12-18T02:38:59.995Z,21.45
2022-12-18T02:41:30.655Z,21.10
2022-12-18T02:44:02.566Z,21.80
2022-12-18T02:46:38.692Z,22.05
2022-12-18T02:49:22.936Z,20.85
2022-12-18T02:51:55.697Z,20.85
2022-12-18T02:54:38.340Z,20.95
2022-12-18T02:57:17.758Z,22.55
2022-12-18T02:59:55.476Z,22.85
2022-12-18T03:02:27.999Z,21.30
2022-12-18T03:05:03.297Z,22.33
2022-12-18T03:07:39.074Z,21.85
2022-12-18T03:10:10.872Z,23.42
2022-12-18T03:12:45.182Z,22.55
2022-12-18T03:15:20.304Z,25.25
2022-12-18T03:17:54.922Z,24.08
2022-12-18T03:20:25.629Z,24.77
2022-12-18T03:22:58.516Z,24.30
2022-12-18T03:25:29.587Z,23.48
2022-12-18T03:28:02.713Z,25.42
2022-12-18T03:30:33.726Z,24.70
2022-12-18T03:33:08.027Z,23.77
2022-12-18T03:35:39.751Z,24.85
2022-12-18T03:38:08.371Z,26.20
2022-12-18T03:40:46.635Z,24.45
2022-12-18T03:43:22.044Z,28.45
2022-12-18T03:45:56.658Z,25.27
2022-12-18T03:48:32.511Z,23.58
2022-12-18T03:51:04.372Z,23.85
2022-12-18T03:53:39.738Z,25.88
2022-12-18T03:56:09.525Z,23.63
2022-12-18T03:58:42.110Z,23.08
2022-12-18T04:01:14.499Z,23.73
2022-12-18T04:03:44.931Z,22.15
2022-12-18T04:06:14.021Z,21.60
2022-12-18T04:08:43.099Z,22.85
2022-12-18T04:11:11.315Z,23.30
2022-12-18T04:13:41.182Z,23.38
2022-12-18T04:16:10.396Z,23.50
2022-12-18T04:18:38.740Z,24.15
2022-12-18T04:21:07.400Z,23.90
2022-12-18T04:23:35.491Z,26.17
2022-12-18T04:26:03.391Z,23.35
2022-12-18T04:28:31.279Z,23.92
2022-12-18T04:31:00.602Z,23.02
2022-12-18T04:33:28.590Z,23.13
2022-12-18T04:35:56.567Z,21.35
2022-12-18T04:38:24.555Z,22.50
2022-12-18T04:40:52.439Z,24.35
2022-12-18T04:43:20.387Z,24.80
2022-12-18T04:45:48.370Z,22.35
2022-12-18T04:48:17.772Z,23.65
2022-12-18T04:50:45.651Z,24.55
2022-12-18T04:53:13.526Z,23.20
2022-12-18T04:55:41.553Z,24.00
2022-12-18T04:58:09.495Z,26.10
2022-12-18T05:00:37.697Z,23.92
2022-12-18T05:03:05.726Z,23.65
2022-12-18T05:05:37.072Z,24.48
2022-12-18T05:08:05.266Z,23.08
2022-12-18T05:10:37.937Z,24.00
2022-12-18T05:13:06.322Z,22.45
2022-12-18T05:15:35.258Z,22.45
2022-12-18T05:18:03.925Z,24.42
2022-12-18T05:20:32.168Z,21.92
2022-12-18T05:23:01.515Z,22.05
2022-12-18T05:25:29.701Z,23.15
2022-12-18T05:27:57.852Z,24.77
2022-12-18T05:30:26.035Z,24.17
2022-12-18T05:32:54.028Z,23.17
2022-12-18T05:35:22.740Z,21.55
2022-12-18T05:37:50.647Z,23.20
2022-12-18T05:40:20.042Z,21.38
2022-12-18T05:42:47.920Z,23.70
2022-12-18T05:45:15.831Z,22.58
2022-12-18T05:47:43.800Z,21.00
2022-12-18T05:50:11.817Z,23.48
2022-12-18T05:52:39.736Z,26.10
2022-12-18T05:55:08.002Z,27.15
2022-12-18T05:57:37.365Z,26.67
2022-12-18T06:00:06.178Z,27.58
2022-12-18T06:02:34.145Z,28.63
2022-12-18T06:05:02.142Z,31.45
2022-12-18T06:07:30.066Z,32.75
2022-12-18T06:09:57.930Z,33.42
2022-12-18T06:12:25.935Z,31.95
2022-12-18T06:14:55.202Z,31.77
2022-12-18T06:17:23.327Z,31.83
2022-12-18T06:19:51.248Z,31.27
2022-12-18T06:22:19.188Z,31.70
2022-12-18T06:24:47.115Z,29.08
2022-12-18T06:27:15.288Z,32.92
2022-12-18T06:29:43.185Z,30.10
2022-12-18T06:32:12.543Z,31.13
2022-12-18T06:34:40.577Z,33.13
2022-12-18T06:37:08.865Z,33.30
2022-12-18T06:39:36.845Z,32.08
2022-12-18T06:42:05.679Z,31.08
2022-12-18T06:44:33.764Z,33.83
2022-12-18T06:47:01.653Z,35.60
2022-12-18T06:49:30.969Z,35.50
2022-12-18T06:51:59.019Z,37.42
2022-12-18T06:54:26.985Z,35.80
2022-12-18T06:56:54.936Z,34.45
2022-12-18T06:59:22.900Z,37.28
2022-12-18T07:01:50.895Z,37.20
2022-12-18T07:04:18.997Z,36.95
2022-12-18T07:06:48.453Z,36.25
2022-12-18T07:09:16.465Z,36.65
2022-12-18T07:11:44.427Z,36.38
2022-12-18T07:14:12.429Z,35.83
2022-12-18T07:16:40.433Z,37.10
2022-12-18T07:19:08.699Z,35.50
2022-12-18T07:21:36.598Z,35.15
2022-12-18T07:24:06.977Z,35.85
2022-12-18T07:26:35.125Z,35.13
2022-12-18T07:29:03.117Z,35.35
2022-12-18T07:31:31.171Z,41.85
2022-12-18T07:33:59.327Z,38.85
2022-12-18T07:36:27.603Z,37.30
2022-12-18T07:38:55.782Z,36.10
2022-12-18T07:41:25.077Z,35.15
2022-12-18T07:43:53.280Z,38.05
2022-12-18T07:46:21.563Z,36.45
2022-12-18T07:48:50.454Z,38.60
2022-12-18T07:51:19.899Z,41.53
2022-12-18T07:53:49.537Z,37.42
2022-12-18T07:56:29.161Z,33.88
2022-12-18T07:58:59.711Z,36.53
2022-12-18T08:01:28.170Z,34.80
2022-12-18T08:03:56.418Z,35.90
2022-12-18T08:06:24.853Z,34.40
2022-12-18T08:08:54.500Z,33.92
2022-12-18T08:11:23.198Z,36.60
2022-12-18T08:13:51.117Z,37.42
2022-12-18T08:16:21.859Z,35.15
2022-12-18T08:18:50.785Z,34.95
2022-12-18T08:21:22.257Z,34.92
2022-12-18T08:23:51.678Z,34.38
2022-12-18T08:26:20.956Z,32.05
2022-12-18T08:28:49.890Z,35.38
2022-12-18T08:31:20.305Z,33.30
2022-12-18T08:33:51.581Z,33.63
2022-12-18T08:36:20.125Z,33.67
2022-12-18T08:38:48.590Z,32.78
2022-12-18T08:41:19.229Z,33.90
2022-12-18T08:44:04.852Z,34.08
2022-12-18T08:46:37.545Z,39.92
2022-12-18T08:49:05.801Z,29.88
2022-12-18T08:51:33.926Z,31.70
2022-12-18T08:54:02.359Z,32.22
2022-12-18T08:56:31.978Z,32.60
2022-12-18T08:59:00.114Z,31.83
2022-12-18T09:01:28.363Z,34.63
2022-12-18T09:03:57.714Z,31.58
2022-12-18T09:06:27.638Z,30.75
2022-12-18T09:08:55.612Z,31.73
2022-12-18T09:11:26.081Z,32.10
2022-12-18T09:13:55.650Z,34.30
2022-12-18T09:16:30.171Z,32.17
2022-12-18T09:19:01.733Z,33.03
2022-12-18T09:21:31.671Z,32.92
2022-12-18T09:24:01.468Z,31.52
2022-12-18T09:26:29.479Z,32.05
2022-12-18T09:28:57.458Z,34.22
2022-12-18T09:31:26.689Z,32.50
2022-12-18T09:33:56.642Z,33.03
2022-12-18T09:36:25.985Z,33.70
2022-12-18T09:38:54.182Z,32.78
2022-12-18T09:41:45.451Z,32.17
2022-12-18T09:44:20.545Z,32.20
2022-12-18T09:46:52.822Z,32.85
2022-12-18T09:49:24.691Z,33.67
2022-12-18T09:51:59.299Z,30.80
2022-12-18T09:54:34.795Z,32.08
2022-12-18T09:57:02.701Z,31.85
2022-12-18T09:59:36.413Z,32.00
2022-12-18T10:02:16.119Z,32.08
2022-12-18T10:04:44.575Z,33.38
2022-12-18T10:07:21.391Z,31.55
2022-12-18T10:09:57.565Z,32.47
2022-12-18T10:12:30.631Z,31.70
2022-12-18T10:15:04.940Z,31.48
2022-12-18T10:17:43.085Z,31.27
2022-12-18T10:20:17.823Z,30.67
2022-12-18T10:22:56.064Z,31.25
2022-12-18T10:25:27.587Z,30.50
2022-12-18T10:27:59.643Z,31.13
2022-12-18T10:30:28.527Z,32.85
2022-12-18T10:32:57.229Z,29.98
2022-12-18T10:35:27.789Z,31.80
2022-12-18T10:38:05.668Z,31.50
2022-12-18T10:40:34.387Z,32.35
2022-12-18T10:43:06.901Z,31.75
2022-12-18T10:45:34.940Z,30.88
2022-12-18T10:48:03.220Z,31.23
2022-12-18T10:51:01.723Z,30.98
2022-12-18T10:53:26.200Z,31.73
2022-12-18T10:55:56.121Z,31.42
2022-12-18T10:58:27.591Z,32.38
2022-12-18T11:01:07.589Z,32.60
2022-12-18T11:03:37.832Z,31.52
2022-12-18T11:06:08.458Z,30.65
2022-12-18T11:08:37.997Z,30.27
2022-12-18T11:11:10.060Z,30.17
2022-12-18T11:13:38.031Z,31.83
2022-12-18T11:16:06.280Z,30.90
2022-12-18T11:18:35.896Z,31.30
2022-12-18T11:21:09.388Z,30.92
2022-12-18T11:23:47.845Z,31.13
2022-12-18T11:26:16.016Z,31.95
2022-12-18T11:28:46.827Z,31.90
2022-12-18T11:31:28.541Z,32.08
2022-12-18T11:37:02.116Z,36.33
2022-12-18T11:39:39.643Z,32.15
2022-12-18T11:42:14.775Z,34.97
2022-12-18T11:44:48.994Z,35.50
2022-12-18T11:47:27.756Z,27.80
2022-12-18T11:49:58.389Z,29.65
2022-12-18T11:52:29.360Z,29.90
2022-12-18T11:55:03.253Z,29.42
2022-12-18T11:57:39.494Z,29.95
2022-12-18T12:00:16.008Z,29.10
2022-12-18T12:03:07.063Z,28.58
2022-12-18T12:05:52.170Z,30.17
2022-12-18T12:08:29.138Z,32.38
2022-12-18T12:11:08.395Z,30.20
2022-12-18T12:13:46.945Z,29.80
2022-12-18T12:16:20.876Z,31.02
2022-12-18T12:19:10.565Z,29.90
2022-12-18T12:21:42.826Z,29.77
2022-12-18T12:24:24.331Z,31.17
2022-12-18T12:27:03.376Z,30.27
2022-12-18T12:29:44.871Z,29.27
2022-12-18T12:32:28.394Z,30.10
2022-12-18T12:35:11.602Z,30.45
2022-12-18T12:37:53.852Z,30.70
2022-12-18T12:43:23.837Z,28.45
2022-12-18T12:45:56.028Z,26.92
2022-12-18T12:48:35.395Z,27.63
2022-12-18T12:51:09.332Z,26.30
2022-12-18T12:53:40.822Z,26.80
2022-12-18T12:56:15.474Z,27.10
2022-12-18T12:58:54.637Z,25.73
2022-12-18T13:01:31.167Z,27.80
2022-12-18T13:04:09.028Z,26.35
2022-12-18T13:06:46.361Z,23.83
2022-12-18T13:09:14.617Z,23.15
2022-12-18T13:12:02.108Z,23.05
2022-12-18T13:14:33.849Z,23.40
2022-12-18T13:17:31.885Z,23.73
2022-12-18T13:20:15.558Z,22.15
2022-12-18T13:22:47.842Z,21.98
2022-12-18T13:25:37.201Z,20.90
2022-12-18T13:28:11.202Z,19.92
2022-12-18T13:30:55.680Z,20.30
2022-12-18T13:36:37.419Z,20.02
2022-12-18T13:39:23.256Z,22.50
2022-12-18T13:41:56.549Z,19.70
2022-12-18T13:44:39.997Z,19.05
2022-12-18T13:47:30.165Z,18.52
2022-12-18T13:49:59.112Z,22.52
2022-12-18T13:52:30.379Z,26.13
2022-12-18T13:55:01.442Z,19.30
2022-12-18T13:57:31.239Z,17.23
2022-12-18T14:00:01.046Z,17.52
2022-12-18T14:02:31.184Z,17.80
2022-12-18T14:04:59.215Z,16.38
2022-12-18T14:07:31.433Z,17.25
2022-12-18T14:10:18.866Z,15.82
2022-12-18T14:13:03.064Z,16.90
2022-12-18T14:15:35.671Z,16.02
2022-12-18T14:18:21.082Z,15.68
2022-12-18T14:20:52.940Z,17.33
2022-12-18T14:23:31.006Z,17.73
2022-12-18T14:26:03.780Z,18.38
2022-12-18T14:28:33.781Z,17.30
2022-12-18T14:31:01.841Z,17.90
2022-12-18T14:33:31.208Z,20.98
2022-12-18T14:36:01.701Z,16.80
2022-12-18T14:38:32.043Z,16.70
2022-12-18T14:41:01.737Z,21.60
2022-12-18T14:43:31.515Z,22.20
2022-12-18T14:46:00.826Z,21.73
2022-12-18T14:48:39.409Z,22.05
2022-12-18T14:51:09.402Z,21.88
2022-12-18T14:53:40.857Z,19.77
2022-12-18T14:56:17.828Z,18.13
2022-12-18T14:58:50.668Z,18.98
2022-12-18T15:01:24.066Z,17.23
2022-12-18T15:03:54.035Z,20.55
2022-12-18T15:06:29.451Z,20.65
2022-12-18T15:08:57.428Z,23.05
2022-12-18T15:11:28.764Z,18.05
2022-12-18T15:13:57.005Z,17.48
2022-12-18T15:16:26.364Z,17.25
2022-12-18T15:18:55.831Z,16.90
2022-12-18T15:21:26.130Z,21.75
2022-12-18T15:23:55.281Z,22.15
2022-12-18T15:26:24.289Z,22.98
2022-12-18T15:28:56.104Z,22.13
2022-12-18T15:31:31.685Z,22.25
2022-12-18T15:34:13.649Z,20.63
2022-12-18T15:36:41.980Z,31.83
2022-12-18T15:39:13.424Z,22.77
2022-12-18T15:41:41.592Z,21.05
2022-12-18T15:44:23.989Z,31.58
2022-12-18T15:46:52.038Z,28.45
2022-12-18T15:49:21.686Z,23.70
2022-12-18T15:51:52.964Z,21.70
2022-12-18T15:54:41.588Z,22.10
2022-12-18T15:57:25.397Z,23.17
2022-12-18T15:59:55.130Z,24.33
2022-12-18T16:02:24.747Z,24.70
2022-12-18T16:04:55.089Z,23.88
2022-12-18T16:07:25.489Z,25.50
2022-12-18T16:09:55.853Z,23.80
2022-12-18T16:12:26.369Z,22.75
2022-12-18T16:14:54.504Z,21.40
2022-12-18T16:17:22.550Z,21.73
2022-12-18T16:19:50.568Z,21.98
2022-12-18T16:22:23.440Z,28.75
2022-12-18T16:24:52.328Z,29.50
2022-12-18T16:27:20.712Z,27.58
2022-12-18T16:29:48.721Z,28.35
2022-12-18T16:32:19.021Z,31.58
2022-12-18T16:34:47.134Z,23.15
2022-12-18T16:37:16.911Z,24.05
2022-12-18T16:39:46.297Z,38.10
2022-12-18T16:42:19.769Z,45.38
2022-12-18T16:44:48.936Z,41.33
2022-12-18T16:47:17.868Z,29.48
2022-12-18T16:49:46.472Z,26.80
2022-12-18T16:52:15.125Z,28.95
2022-12-18T16:54:43.097Z,36.00
2022-12-18T16:57:14.811Z,31.17
2022-12-18T16:59:42.875Z,23.00
2022-12-18T17:02:15.896Z,22.35
2022-12-18T17:04:45.625Z,23.48
2022-12-18T17:07:14.010Z,21.55
2022-12-18T17:09:42.416Z,21.45
2022-12-18T17:12:12.027Z,25.77
2022-12-18T17:14:40.196Z,31.20
2022-12-18T17:17:20.784Z,39.47
2022-12-18T17:19:50.082Z,31.20
2022-12-18T17:22:18.086Z,29.15
2022-12-18T17:24:46.116Z,41.72
2022-12-18T17:27:15.447Z,38.80
2022-12-18T17:29:47.822Z,45.08
2022-12-18T17:32:16.690Z,43.10
2022-12-18T17:34:44.761Z,37.33
2022-12-18T17:37:12.828Z,50.70
2022-12-18T17:39:41.158Z,69.35
2022-12-18T17:42:14.663Z,46.70
2022-12-18T17:44:44.921Z,38.47
2022-12-18T17:47:13.162Z,41.15
2022-12-18T17:49:41.338Z,50.50
2022-12-18T17:52:09.455Z,31.02
2022-12-18T17:54:39.913Z,32.33
2022-12-18T17:57:08.093Z,36.72
2022-12-18T17:59:36.153Z,38.80
2022-12-18T18:02:05.829Z,33.72
2022-12-18T18:04:34.620Z,36.83
2022-12-18T18:07:03.094Z,42.90
2022-12-18T18:09:31.164Z,43.35
2022-12-18T18:12:16.599Z,55.20
2022-12-18T18:14:44.857Z,56.15
2022-12-18T18:17:14.201Z,43.08
2022-12-18T18:19:43.508Z,39.88
2022-12-18T18:22:14.799Z,37.65
2022-12-18T18:24:43.790Z,36.03
2022-12-18T18:27:11.864Z,35.38
2022-12-18T18:29:40.701Z,47.13
2022-12-18T18:32:10.621Z,40.97
2022-12-18T18:34:41.120Z,35.22
2022-12-18T18:37:11.046Z,38.60
2022-12-18T18:39:39.451Z,41.45
2022-12-18T18:42:08.160Z,42.58
2022-12-18T18:44:36.440Z,41.30
2022-12-18T18:47:06.926Z,37.13
2022-12-18T18:49:37.548Z,33.95
2022-12-18T18:52:08.617Z,30.02
2022-12-18T18:54:36.688Z,29.20
2022-12-18T18:57:20.336Z,28.90
2022-12-18T18:59:49.081Z,31.92
2022-12-18T19:02:18.618Z,38.97
2022-12-18T19:04:47.154Z,33.88
2022-12-18T19:07:24.040Z,28.63
2022-12-18T19:10:04.756Z,36.63
2022-12-18T19:12:51.829Z,48.58
2022-12-18T19:15:19.947Z,45.47
2022-12-18T19:17:48.354Z,41.40
2022-12-18T19:20:18.294Z,43.08
2022-12-18T19:22:52.203Z,45.20
2022-12-18T19:25:38.535Z,39.92
2022-12-18T19:28:19.962Z,39.50
2022-12-18T19:30:50.861Z,40.70
2022-12-18T19:36:18.593Z,61.33
2022-12-18T19:38:48.196Z,102.32
2022-12-18T19:41:17.823Z,55.75
2022-12-18T19:43:47.400Z,59.03
2022-12-18T19:46:17.004Z,45.22
2022-12-18T19:48:45.841Z,37.75
2022-12-18T19:51:16.587Z,33.80
2022-12-18T19:53:45.039Z,33.28
2022-12-18T19:56:16.078Z,32.45
2022-12-18T19:58:45.147Z,35.22
2022-12-18T20:01:13.667Z,39.80
2022-12-18T20:03:46.959Z,38.85
2022-12-18T20:06:25.102Z,36.33
2022-12-18T20:08:57.626Z,33.80
2022-12-18T20:11:30.948Z,33.88
2022-12-18T20:14:03.179Z,33.15
2022-12-18T20:16:31.476Z,34.92
2022-12-18T20:18:59.810Z,37.95
2022-12-18T20:21:28.293Z,39.05
2022-12-18T20:23:56.779Z,46.05
2022-12-18T20:26:25.099Z,43.30
2022-12-18T20:28:55.671Z,42.67
2022-12-18T20:31:24.088Z,35.58
2022-12-18T20:33:54.377Z,34.65
2022-12-18T20:36:24.628Z,33.35
2022-12-18T20:38:58.234Z,36.22
2022-12-18T20:41:33.506Z,32.70
2022-12-18T20:44:21.364Z,33.75
2022-12-18T20:46:51.876Z,34.53
2022-12-18T20:49:19.902Z,44.67
2022-12-18T20:51:51.490Z,46.88
2022-12-18T20:54:19.397Z,43.25
2022-12-18T20:56:47.529Z,40.30
2022-12-18T20:59:17.643Z,39.20
2022-12-18T21:01:48.771Z,35.80
2022-12-18T21:04:18.230Z,37.63
2022-12-18T21:06:51.393Z,37.35
2022-12-18T21:09:20.435Z,42.03
2022-12-18T21:12:05.798Z,55.58
2022-12-18T21:17:03.023Z,67.22
2022-12-18T21:19:31.590Z,74.97
2022-12-18T21:21:59.868Z,54.88
2022-12-18T21:24:28.224Z,50.95
2022-12-18T21:27:00.552Z,51.33
2022-12-18T21:29:28.875Z,58.17
2022-12-18T21:31:58.588Z,56.08
2022-12-18T21:34:28.508Z,50.85
2022-12-18T21:36:57.724Z,48.17
2022-12-18T21:39:27.005Z,46.65
2022-12-18T21:42:13.051Z,45.08
2022-12-18T21:44:41.992Z,49.25
2022-12-18T21:47:21.696Z,47.65
2022-12-18T21:49:51.701Z,48.92
2022-12-18T21:52:19.997Z,46.25
2022-12-18T21:54:49.751Z,48.33
2022-12-18T21:57:18.688Z,48.85
2022-12-18T21:59:46.616Z,49.22
2022-12-18T22:02:17.253Z,48.22
2022-12-18T22:04:46.147Z,46.28
2022-12-18T22:07:15.376Z,46.10
2022-12-18T22:09:43.626Z,44.25
2022-12-18T22:12:13.689Z,42.17
2022-12-18T22:14:41.593Z,40.28
2022-12-18T22:17:11.110Z,41.33
2022-12-18T22:19:43.075Z,44.53
2022-12-18T22:22:11.683Z,45.55
2022-12-18T22:24:39.625Z,45.25
2022-12-18T22:27:07.673Z,43.35
2022-12-18T22:29:53.531Z,41.67
2022-12-18T22:35:06.804Z,41.15
2022-12-18T22:37:37.330Z,40.30
2022-12-18T22:40:07.378Z,37.00
2022-12-18T22:42:35.541Z,38.25
2022-12-18T22:45:03.564Z,37.53
2022-12-18T22:47:31.532Z,38.20
2022-12-18T22:50:00.840Z,36.55
2022-12-18T22:52:28.838Z,37.92
2022-12-18T22:54:56.785Z,37.97
2022-12-18T22:57:25.732Z,38.65
2022-12-18T22:59:53.615Z,39.83
2022-12-18T23:02:21.815Z,40.20
2022-12-18T23:04:49.902Z,40.22
2022-12-18T23:07:19.390Z,43.45
2022-12-18T23:09:47.856Z,44.47
2022-12-18T23:12:20.896Z,45.50
2022-12-18T23:14:49.026Z,49.58
2022-12-18T23:17:17.127Z,45.97
2022-12-18T23:19:48.970Z,49.08
2022-12-18T23:22:17.453Z,48.40
2022-12-18T23:24:47.543Z,48.67
2022-12-18T23:27:15.527Z,47.85
2022-12-18T23:29:43.447Z,48.33
2022-12-18T23:32:13.478Z,48.05
2022-12-18T23:34:41.537Z,48.60
2022-12-18T23:37:09.503Z,48.75
2022-12-18T23:39:37.337Z,46.83
2022-12-18T23:42:07.019Z,48.55
2022-12-18T23:44:35.123Z,46.72
2022-12-18T23:47:03.112Z,48.67
2022-12-18T23:49:31.150Z,48.42
2022-12-18T23:51:59.522Z,46.22
2022-12-18T23:54:33.581Z,49.25
2022-12-18T23:57:02.604Z,46.92
2022-12-18T23:59:32.121Z,47.72
